AAL6769 KRDU-KBOS
Flight info
| Callsign | AAL6769 |
|---|---|
| Flight time | N/A |
| Altitude | 35000 |
| Route | BEXGO5 BOUSY DCT GEARS DCT BBOBO Q22 RBV Q419 JFK ROBUC3 |
| Aircraft | A321/M-ICAO/L |
Departure
| Time | 2026-05-07 01:45 |
|---|---|
| Airport | Raleigh-Durham International Airport (KRDU) |
Arrival
| Time | N/A |
|---|---|
| Airport | Boston Logan International Airport (KBOS) |
| Time | Latitude | Longitude | Altitude | Speed | Heading |
|---|---|---|---|---|---|
| 2026-05-07 01:03 | 35.87873 | -78.79269 | 414 ft | 0 kts | 134° |
| 2026-05-07 01:30 | 35.87883 | -78.79284 | 417 ft | 2 kts | 132° |
| 2026-05-07 01:30 | 35.87893 | -78.79301 | 415 ft | 2 kts | 125° |
| 2026-05-07 01:31 | 35.87900 | -78.79318 | 416 ft | 2 kts | 103° |
| 2026-05-07 01:31 | 35.87901 | -78.79339 | 421 ft | 2 kts | 58° |
| 2026-05-07 01:31 | 35.87893 | -78.79352 | 424 ft | 1 kts | 40° |
| 2026-05-07 01:31 | 35.87892 | -78.79354 | 424 ft | 0 kts | 36° |
| 2026-05-07 01:35 | 35.87900 | -78.79346 | 417 ft | 5 kts | 37° |
| 2026-05-07 01:35 | 35.87954 | -78.79281 | 419 ft | 17 kts | 47° |
| 2026-05-07 01:36 | 35.88049 | -78.79155 | 423 ft | 21 kts | 46° |
| 2026-05-07 01:36 | 35.88150 | -78.79027 | 426 ft | 22 kts | 46° |
| 2026-05-07 01:36 | 35.88259 | -78.78890 | 413 ft | 22 kts | 45° |
| 2026-05-07 01:36 | 35.88371 | -78.78753 | 418 ft | 23 kts | 44° |
| 2026-05-07 01:37 | 35.88483 | -78.78615 | 425 ft | 22 kts | 45° |
| 2026-05-07 01:37 | 35.88582 | -78.78494 | 417 ft | 19 kts | 46° |
| 2026-05-07 01:37 | 35.88667 | -78.78398 | 426 ft | 15 kts | 28° |
| 2026-05-07 01:37 | 35.88742 | -78.78302 | 424 ft | 17 kts | 47° |
| 2026-05-07 01:38 | 35.88829 | -78.78188 | 418 ft | 19 kts | 45° |
| 2026-05-07 01:38 | 35.88915 | -78.78083 | 419 ft | 10 kts | 45° |
| 2026-05-07 01:38 | 35.88966 | -78.78010 | 420 ft | 13 kts | 62° |
| 2026-05-07 01:38 | 35.89002 | -78.77905 | 418 ft | 14 kts | 63° |
| 2026-05-07 01:39 | 35.89053 | -78.77831 | 417 ft | 11 kts | 46° |
| 2026-05-07 01:39 | 35.89106 | -78.77765 | 415 ft | 11 kts | 45° |
| 2026-05-07 01:39 | 35.89164 | -78.77693 | 417 ft | 12 kts | 45° |
| 2026-05-07 01:39 | 35.89200 | -78.77652 | 423 ft | 3 kts | 34° |
| 2026-05-07 01:40 | 35.89214 | -78.77646 | 418 ft | 1 kts | 12° |
| 2026-05-07 01:40 | 35.89229 | -78.77648 | 424 ft | 4 kts | 347° |
| 2026-05-07 01:40 | 35.89259 | -78.77675 | 413 ft | 5 kts | 317° |
| 2026-05-07 01:40 | 35.89279 | -78.77699 | 416 ft | 3 kts | 316° |
| 2026-05-07 01:41 | 35.89290 | -78.77711 | 423 ft | 1 kts | 316° |
| 2026-05-07 01:41 | 35.89291 | -78.77713 | 423 ft | 0 kts | 316° |
| 2026-05-07 01:43 | 35.89298 | -78.77721 | 426 ft | 5 kts | 316° |
| 2026-05-07 01:43 | 35.89345 | -78.77777 | 429 ft | 12 kts | 315° |
| 2026-05-07 01:43 | 35.89368 | -78.77824 | 420 ft | 4 kts | 251° |
| 2026-05-07 01:43 | 35.89352 | -78.77848 | 421 ft | 1 kts | 224° |
| 2026-05-07 01:44 | 35.89325 | -78.77881 | 417 ft | 23 kts | 224° |
| 2026-05-07 01:44 | 35.89026 | -78.78249 | 420 ft | 95 kts | 224° |
| 2026-05-07 01:44 | 35.88407 | -78.79008 | 419 ft | 153 kts | 225° |
| 2026-05-07 01:44 | 35.87566 | -78.80047 | 674 ft | 179 kts | 224° |
| 2026-05-07 01:45 | 35.86683 | -78.81141 | 1356 ft | 179 kts | 225° |
| 2026-05-07 01:45 | 35.85792 | -78.82197 | 2075 ft | 179 kts | 224° |
| 2026-05-07 01:45 | 35.84828 | -78.83309 | 2422 ft | 197 kts | 224° |
| 2026-05-07 01:45 | 35.83807 | -78.84483 | 2970 ft | 203 kts | 224° |
| 2026-05-07 01:46 | 35.82751 | -78.85654 | 3490 ft | 210 kts | 224° |
| 2026-05-07 01:46 | 35.81587 | -78.86917 | 3786 ft | 235 kts | 224° |
| 2026-05-07 01:46 | 35.80330 | -78.88260 | 4586 ft | 242 kts | 224° |
| 2026-05-07 01:46 | 35.79052 | -78.89589 | 5525 ft | 246 kts | 224° |
| 2026-05-07 01:47 | 35.77806 | -78.91054 | 6324 ft | 248 kts | 238° |
| 2026-05-07 01:47 | 35.77136 | -78.92986 | 6902 ft | 248 kts | 262° |
| 2026-05-07 01:47 | 35.77254 | -78.95110 | 7532 ft | 253 kts | 285° |
| 2026-05-07 01:47 | 35.78175 | -78.96984 | 8150 ft | 265 kts | 311° |
| 2026-05-07 01:48 | 35.79797 | -78.98159 | 8760 ft | 282 kts | 339° |
| 2026-05-07 01:48 | 35.81786 | -78.98179 | 9333 ft | 303 kts | 10° |
| 2026-05-07 01:48 | 35.83674 | -78.96893 | 9913 ft | 319 kts | 35° |
| 2026-05-07 01:48 | 35.85359 | -78.95013 | 10186 ft | 337 kts | 41° |
| 2026-05-07 01:49 | 35.87043 | -78.92872 | 10318 ft | 357 kts | 43° |
| 2026-05-07 01:49 | 35.88770 | -78.90558 | 10513 ft | 373 kts | 44° |
| 2026-05-07 01:49 | 35.90524 | -78.88198 | 10964 ft | 378 kts | 44° |
| 2026-05-07 01:49 | 35.92324 | -78.85816 | 11489 ft | 381 kts | 43° |
| 2026-05-07 01:50 | 35.94167 | -78.83427 | 11824 ft | 383 kts | 42° |
| 2026-05-07 01:50 | 35.96023 | -78.81061 | 11903 ft | 383 kts | 42° |
| 2026-05-07 01:50 | 35.97865 | -78.78738 | 11931 ft | 383 kts | 42° |
| 2026-05-07 01:50 | 35.99739 | -78.76383 | 11915 ft | 383 kts | 42° |
| 2026-05-07 01:51 | 36.01611 | -78.74033 | 11903 ft | 383 kts | 42° |
| 2026-05-07 01:51 | 36.03486 | -78.71677 | 11906 ft | 384 kts | 42° |
| 2026-05-07 01:51 | 36.05354 | -78.69323 | 11907 ft | 384 kts | 42° |
| 2026-05-07 01:51 | 36.07199 | -78.66987 | 11902 ft | 384 kts | 42° |
| 2026-05-07 01:52 | 36.09065 | -78.64623 | 11911 ft | 384 kts | 42° |
| 2026-05-07 01:52 | 36.10942 | -78.62244 | 11914 ft | 385 kts | 42° |
| 2026-05-07 01:52 | 36.12811 | -78.59871 | 11913 ft | 385 kts | 42° |
| 2026-05-07 01:52 | 36.14682 | -78.57491 | 11915 ft | 385 kts | 42° |
| 2026-05-07 01:53 | 36.16529 | -78.55138 | 11917 ft | 385 kts | 42° |
| 2026-05-07 01:53 | 36.18397 | -78.52757 | 11919 ft | 385 kts | 42° |
| 2026-05-07 01:53 | 36.20280 | -78.50360 | 12300 ft | 389 kts | 42° |
| 2026-05-07 01:53 | 36.22178 | -78.47944 | 12856 ft | 392 kts | 42° |
| 2026-05-07 01:54 | 36.24092 | -78.45508 | 13409 ft | 395 kts | 42° |
| 2026-05-07 01:54 | 36.26022 | -78.43049 | 13928 ft | 399 kts | 42° |
| 2026-05-07 01:54 | 36.28045 | -78.40689 | 14402 ft | 398 kts | 34° |
| 2026-05-07 01:54 | 36.30233 | -78.38641 | 14866 ft | 400 kts | 31° |
| 2026-05-07 01:55 | 36.32472 | -78.36573 | 15348 ft | 403 kts | 31° |
| 2026-05-07 01:55 | 36.34730 | -78.34488 | 15832 ft | 405 kts | 31° |
| 2026-05-07 01:55 | 36.36999 | -78.32386 | 16311 ft | 408 kts | 31° |
| 2026-05-07 01:55 | 36.39286 | -78.30256 | 16786 ft | 411 kts | 31° |
| 2026-05-07 01:56 | 36.41579 | -78.28110 | 17262 ft | 414 kts | 30° |
| 2026-05-07 01:56 | 36.43900 | -78.25935 | 17665 ft | 419 kts | 30° |
| 2026-05-07 01:56 | 36.46208 | -78.23773 | 18092 ft | 422 kts | 30° |
| 2026-05-07 01:56 | 36.48566 | -78.21567 | 18491 ft | 425 kts | 30° |
| 2026-05-07 01:57 | 36.50942 | -78.19346 | 18877 ft | 428 kts | 30° |
| 2026-05-07 01:57 | 36.53327 | -78.17111 | 19267 ft | 430 kts | 30° |
| 2026-05-07 01:57 | 36.55723 | -78.14858 | 19649 ft | 432 kts | 30° |
| 2026-05-07 01:57 | 36.58131 | -78.12586 | 20094 ft | 434 kts | 30° |
| 2026-05-07 01:58 | 36.60511 | -78.10336 | 20479 ft | 437 kts | 30° |
| 2026-05-07 01:58 | 36.62942 | -78.08037 | 20857 ft | 439 kts | 30° |
| 2026-05-07 01:58 | 36.65378 | -78.05729 | 21249 ft | 441 kts | 30° |
| 2026-05-07 01:58 | 36.67829 | -78.03410 | 21601 ft | 444 kts | 30° |
| 2026-05-07 01:59 | 36.70304 | -78.01069 | 21950 ft | 446 kts | 30° |
| 2026-05-07 01:59 | 36.72788 | -77.98715 | 22299 ft | 449 kts | 30° |
| 2026-05-07 01:59 | 36.75281 | -77.96349 | 22638 ft | 451 kts | 30° |
| 2026-05-07 01:59 | 36.77786 | -77.93968 | 22962 ft | 454 kts | 30° |
| 2026-05-07 02:00 | 36.80262 | -77.91557 | 23285 ft | 459 kts | 34° |
| 2026-05-07 02:00 | 36.82531 | -77.88695 | 23592 ft | 470 kts | 45° |
| 2026-05-07 02:00 | 36.84479 | -77.85368 | 23839 ft | 476 kts | 50° |
| 2026-05-07 02:00 | 36.86373 | -77.81953 | 24102 ft | 479 kts | 50° |
| 2026-05-07 02:01 | 36.88284 | -77.78521 | 24401 ft | 481 kts | 50° |
| 2026-05-07 02:01 | 36.90207 | -77.75075 | 24670 ft | 484 kts | 50° |
| 2026-05-07 02:01 | 36.92144 | -77.71603 | 24938 ft | 486 kts | 50° |
| 2026-05-07 02:01 | 36.94082 | -77.68130 | 25205 ft | 489 kts | 50° |
| 2026-05-07 02:02 | 36.96005 | -77.64678 | 25453 ft | 491 kts | 50° |
| 2026-05-07 02:02 | 36.97962 | -77.61161 | 25716 ft | 493 kts | 51° |
| 2026-05-07 02:02 | 36.99920 | -77.57632 | 25973 ft | 495 kts | 51° |
| 2026-05-07 02:02 | 37.01889 | -77.54075 | 26250 ft | 497 kts | 51° |
| 2026-05-07 02:03 | 37.03860 | -77.50509 | 26509 ft | 499 kts | 51° |
| 2026-05-07 02:03 | 37.05840 | -77.46931 | 26782 ft | 502 kts | 50° |
| 2026-05-07 02:03 | 37.08020 | -77.43523 | 26922 ft | 500 kts | 41° |
| 2026-05-07 02:03 | 37.10569 | -77.40582 | 27122 ft | 495 kts | 31° |
| 2026-05-07 02:04 | 37.13401 | -77.38175 | 27348 ft | 489 kts | 22° |
| 2026-05-07 02:04 | 37.16438 | -77.36333 | 27585 ft | 481 kts | 13° |
| 2026-05-07 02:04 | 37.19595 | -77.34942 | 27824 ft | 480 kts | 10° |
| 2026-05-07 02:04 | 37.22765 | -77.33583 | 28054 ft | 483 kts | 10° |
| 2026-05-07 02:05 | 37.25951 | -77.32212 | 28292 ft | 485 kts | 10° |
| 2026-05-07 02:05 | 37.29158 | -77.30824 | 28511 ft | 489 kts | 11° |
| 2026-05-07 02:05 | 37.32381 | -77.29425 | 28676 ft | 492 kts | 11° |
| 2026-05-07 02:05 | 37.35627 | -77.28013 | 28885 ft | 495 kts | 11° |
| 2026-05-07 02:06 | 37.38848 | -77.26606 | 29100 ft | 497 kts | 11° |
| 2026-05-07 02:06 | 37.41020 | -77.25656 | 29240 ft | 498 kts | 11° |